createdAt,value
2023-01-08T00:04:31.701Z,100.00
2023-01-08T00:09:23.639Z,100.00
2023-01-08T00:14:17.860Z,99.95
2023-01-08T00:19:11.608Z,99.04
2023-01-08T00:24:04.890Z,97.70
2023-01-08T00:28:56.344Z,95.83
2023-01-08T00:33:49.874Z,94.74
2023-01-08T00:38:44.115Z,94.63
2023-01-08T00:43:36.175Z,93.00
2023-01-08T00:48:31.606Z,93.28
2023-01-08T00:53:26.117Z,92.85
2023-01-08T00:58:19.042Z,93.13
2023-01-08T01:03:10.551Z,93.04
2023-01-08T01:08:00.807Z,93.04
2023-01-08T01:12:53.977Z,93.71
2023-01-08T01:17:46.595Z,93.88
2023-01-08T01:22:38.441Z,94.56
2023-01-08T01:27:32.758Z,94.79
2023-01-08T01:32:26.141Z,96.50
2023-01-08T01:37:17.981Z,96.21
2023-01-08T01:42:35.603Z,97.01
2023-01-08T01:47:33.017Z,96.96
2023-01-08T01:52:25.902Z,96.67
2023-01-08T01:57:19.123Z,97.01
2023-01-08T02:02:12.845Z,97.00
2023-01-08T02:07:16.660Z,97.24
2023-01-08T02:12:25.567Z,96.51
2023-01-08T02:17:23.524Z,95.97
2023-01-08T02:22:30.459Z,95.36
2023-01-08T02:27:29.543Z,95.64
2023-01-08T02:32:21.387Z,95.59
2023-01-08T02:37:14.472Z,96.10
2023-01-08T02:42:15.432Z,96.60
2023-01-08T02:47:14.282Z,96.26
2023-01-08T02:52:09.648Z,96.41
2023-01-08T02:57:03.872Z,96.26
2023-01-08T03:01:58.734Z,95.61
2023-01-08T03:06:54.860Z,95.48
2023-01-08T03:11:55.437Z,95.75
2023-01-08T03:16:55.141Z,95.47
2023-01-08T03:21:49.720Z,95.02
2023-01-08T03:26:45.942Z,95.09
2023-01-08T03:31:37.802Z,95.22
2023-01-08T03:36:32.517Z,95.64
2023-01-08T03:41:27.351Z,95.93
2023-01-08T03:46:33.911Z,96.67
2023-01-08T03:51:24.420Z,95.89
2023-01-08T03:56:15.841Z,94.94
2023-01-08T04:01:06.900Z,94.05
2023-01-08T04:06:02.931Z,92.97
2023-01-08T04:11:02.086Z,92.67
2023-01-08T04:15:52.580Z,92.54
2023-01-08T04:20:43.959Z,92.37
2023-01-08T04:25:36.386Z,91.87
2023-01-08T04:30:30.017Z,92.48
2023-01-08T04:35:21.442Z,92.58
2023-01-08T04:40:16.360Z,92.98
2023-01-08T04:45:17.024Z,93.06
2023-01-08T04:50:11.665Z,94.10
2023-01-08T04:55:07.792Z,95.09
2023-01-08T05:00:03.957Z,95.36
2023-01-08T05:04:56.779Z,95.11
2023-01-08T05:09:49.041Z,95.11
2023-01-08T05:14:38.966Z,95.29
2023-01-08T05:19:30.441Z,95.18
2023-01-08T05:24:26.062Z,94.84
2023-01-08T05:29:19.387Z,94.34
2023-01-08T05:34:13.579Z,93.83
2023-01-08T05:39:04.417Z,94.05
2023-01-08T05:44:01.135Z,93.37
2023-01-08T05:48:55.441Z,93.51
2023-01-08T05:53:50.572Z,93.13
2023-01-08T05:58:43.134Z,92.58
2023-01-08T06:03:35.589Z,92.58
2023-01-08T06:08:25.481Z,91.55
2023-01-08T06:13:19.459Z,91.07
2023-01-08T06:18:15.621Z,91.17
2023-01-08T06:23:17.404Z,91.63
2023-01-08T06:28:09.405Z,90.74
2023-01-08T06:33:03.429Z,90.43
2023-01-08T06:37:58.035Z,89.76
2023-01-08T06:42:53.135Z,89.47
2023-01-08T06:47:45.402Z,90.00
2023-01-08T06:52:43.812Z,89.39
2023-01-08T06:57:35.654Z,88.69
2023-01-08T07:02:32.398Z,88.63
2023-01-08T07:07:25.820Z,88.83
2023-01-08T07:12:17.664Z,88.62
2023-01-08T07:17:14.584Z,88.74
2023-01-08T07:22:16.475Z,89.06
2023-01-08T07:27:20.740Z,89.54
2023-01-08T07:32:10.703Z,89.50
2023-01-08T07:37:00.681Z,91.13
2023-01-08T07:42:00.206Z,90.68
2023-01-08T07:47:10.820Z,90.91
2023-01-08T07:52:03.315Z,90.73
2023-01-08T07:56:58.113Z,91.52
2023-01-08T08:01:51.992Z,92.36
2023-01-08T08:06:44.807Z,92.84
2023-01-08T08:11:39.580Z,93.09
2023-01-08T08:16:34.821Z,93.48
2023-01-08T08:21:25.610Z,93.62
2023-01-08T08:26:20.785Z,93.52
2023-01-08T08:31:18.115Z,93.18
2023-01-08T08:36:15.323Z,93.14
2023-01-08T08:41:11.009Z,92.87
2023-01-08T08:46:05.533Z,92.84
2023-01-08T08:50:56.822Z,93.77
2023-01-08T08:55:51.413Z,93.81
2023-01-08T09:00:45.416Z,93.82
2023-01-08T09:05:39.564Z,93.96
2023-01-08T09:10:31.671Z,94.59
2023-01-08T09:15:27.179Z,94.38
2023-01-08T09:20:22.549Z,94.22
2023-01-08T09:25:22.536Z,93.77
2023-01-08T09:30:15.410Z,94.08
2023-01-08T09:35:19.006Z,94.13
2023-01-08T09:40:17.592Z,94.24
2023-01-08T09:45:16.223Z,94.13
2023-01-08T09:50:15.349Z,94.40
2023-01-08T09:55:09.802Z,93.65
2023-01-08T10:00:05.601Z,91.48
2023-01-08T10:05:07.994Z,89.58
2023-01-08T10:10:00.979Z,87.68
2023-01-08T10:14:54.344Z,85.58
2023-01-08T10:19:45.140Z,85.06
2023-01-08T10:24:43.693Z,83.40
2023-01-08T10:29:42.334Z,81.92
2023-01-08T10:34:45.009Z,81.69
2023-01-08T10:39:39.395Z,81.60
2023-01-08T10:44:39.574Z,81.51
2023-01-08T10:49:42.131Z,82.40
2023-01-08T10:54:49.756Z,82.89
2023-01-08T10:59:48.966Z,83.20
2023-01-08T11:04:44.676Z,82.41
2023-01-08T11:09:38.220Z,82.56
2023-01-08T11:14:34.911Z,81.35
2023-01-08T11:19:34.288Z,77.31
2023-01-08T11:24:32.552Z,76.30
2023-01-08T11:29:48.077Z,76.24
2023-01-08T11:35:04.760Z,76.59
2023-01-08T11:40:05.502Z,76.61
2023-01-08T11:45:17.954Z,75.79
2023-01-08T11:50:27.714Z,75.60
2023-01-08T11:55:35.158Z,74.25
2023-01-08T12:00:49.293Z,75.06
2023-01-08T12:05:53.181Z,73.92
2023-01-08T12:16:16.799Z,72.46
2023-01-08T12:21:22.996Z,73.06
2023-01-08T12:26:33.003Z,73.10
2023-01-08T12:32:09.959Z,71.34
2023-01-08T12:37:15.597Z,69.94
2023-01-08T12:42:25.769Z,72.48
2023-01-08T12:47:24.119Z,72.57
2023-01-08T12:52:25.345Z,70.54
2023-01-08T12:57:27.663Z,71.98
2023-01-08T13:02:42.948Z,71.75
2023-01-08T13:07:48.639Z,71.66
2023-01-08T13:12:44.921Z,71.27
2023-01-08T13:17:44.997Z,71.08
2023-01-08T13:22:54.715Z,68.99
2023-01-08T13:27:52.278Z,70.36
2023-01-08T13:32:48.068Z,70.73
2023-01-08T13:37:53.435Z,70.93
2023-01-08T13:42:46.649Z,70.80
2023-01-08T13:47:47.935Z,70.42
2023-01-08T13:53:02.578Z,71.26
2023-01-08T13:58:02.121Z,75.33
2023-01-08T14:02:55.688Z,75.32
2023-01-08T14:07:53.337Z,74.49
2023-01-08T14:12:46.409Z,74.31
2023-01-08T14:17:51.816Z,74.41
2023-01-08T14:28:05.368Z,74.01
2023-01-08T14:33:06.219Z,74.43
2023-01-08T14:38:18.117Z,74.17
2023-01-08T14:43:42.422Z,74.26
2023-01-08T14:48:43.853Z,74.24
2023-01-08T14:53:40.762Z,74.43
2023-01-08T14:58:45.640Z,74.89
2023-01-08T15:03:40.563Z,74.87
2023-01-08T15:08:39.553Z,75.06
2023-01-08T15:13:40.165Z,75.02
2023-01-08T15:18:34.675Z,75.42
2023-01-08T15:23:38.864Z,75.66
2023-01-08T15:28:32.395Z,76.06
2023-01-08T15:33:34.751Z,76.23
2023-01-08T15:38:29.439Z,76.74
2023-01-08T15:43:23.270Z,77.24
2023-01-08T15:48:23.606Z,77.61
2023-01-08T15:53:29.691Z,78.46
2023-01-08T15:58:30.664Z,78.66
2023-01-08T16:03:28.424Z,79.15
2023-01-08T16:08:28.192Z,79.55
2023-01-08T16:13:27.102Z,80.15
2023-01-08T16:18:30.385Z,79.58
2023-01-08T16:23:40.200Z,80.11
2023-01-08T16:28:37.389Z,79.64
2023-01-08T16:33:32.738Z,79.92
2023-01-08T16:38:33.407Z,79.59
2023-01-08T16:43:30.880Z,79.36
2023-01-08T16:48:27.899Z,79.67
2023-01-08T16:53:21.948Z,79.12
2023-01-08T16:58:34.161Z,79.73
2023-01-08T17:03:25.225Z,80.28
2023-01-08T17:08:20.923Z,79.63
2023-01-08T17:13:26.855Z,79.70
2023-01-08T17:18:24.471Z,79.29
2023-01-08T17:23:17.919Z,79.31
2023-01-08T17:28:09.261Z,79.98
2023-01-08T17:33:08.481Z,80.06
2023-01-08T17:38:00.153Z,80.74
2023-01-08T17:42:51.405Z,81.11
2023-01-08T17:47:43.322Z,81.63
2023-01-08T17:52:40.011Z,82.56
2023-01-08T17:57:33.752Z,82.78
2023-01-08T18:02:44.891Z,82.59
2023-01-08T18:07:39.781Z,82.43
2023-01-08T18:12:43.039Z,82.57
2023-01-08T18:17:54.373Z,82.29
2023-01-08T18:22:53.850Z,82.28
2023-01-08T18:27:43.733Z,82.15
2023-01-08T18:32:40.095Z,82.03
2023-01-08T18:37:47.210Z,81.71
2023-01-08T18:42:44.859Z,81.82
2023-01-08T18:47:43.434Z,81.91
2023-01-08T18:52:38.541Z,82.31
2023-01-08T18:57:39.883Z,82.42
2023-01-08T19:02:35.163Z,82.65
2023-01-08T19:07:30.688Z,82.54
2023-01-08T19:12:27.562Z,82.53
2023-01-08T19:17:25.606Z,82.63
2023-01-08T19:22:22.589Z,82.23
2023-01-08T19:27:18.282Z,82.62
2023-01-08T19:32:14.103Z,82.17
2023-01-08T19:37:18.967Z,81.85
2023-01-08T19:42:30.161Z,81.68
2023-01-08T19:47:28.525Z,82.17
2023-01-08T19:52:21.334Z,82.18
2023-01-08T19:57:17.110Z,82.29
2023-01-08T20:02:09.627Z,81.99
2023-01-08T20:12:23.713Z,82.97
2023-01-08T20:17:19.419Z,82.92
2023-01-08T20:22:16.017Z,83.57
2023-01-08T20:27:07.913Z,83.01
2023-01-08T20:32:06.269Z,83.32
2023-01-08T20:37:00.955Z,84.04
2023-01-08T20:42:03.991Z,84.36
2023-01-08T20:46:55.987Z,84.35
2023-01-08T20:51:59.216Z,84.82
2023-01-08T20:56:59.973Z,85.06
2023-01-08T21:01:58.451Z,85.45
2023-01-08T21:06:56.607Z,85.49
2023-01-08T21:11:53.305Z,85.57
2023-01-08T21:16:50.803Z,85.99
2023-01-08T21:21:46.094Z,85.99
2023-01-08T21:26:47.073Z,85.85
2023-01-08T21:31:41.973Z,87.55
2023-01-08T21:36:37.220Z,89.50
2023-01-08T21:41:46.990Z,92.00
2023-01-08T21:46:46.292Z,92.82
2023-01-08T21:51:56.815Z,93.96
2023-01-08T21:56:47.614Z,94.45
2023-01-08T22:01:40.135Z,94.27
2023-01-08T22:06:36.195Z,93.60
2023-01-08T22:11:31.940Z,92.88
2023-01-08T22:16:26.932Z,92.52
2023-01-08T22:21:22.799Z,92.75
2023-01-08T22:26:18.533Z,92.58
2023-01-08T22:31:15.787Z,92.64
2023-01-08T22:36:07.541Z,92.87
2023-01-08T22:40:59.261Z,92.91
2023-01-08T22:45:58.303Z,92.70
2023-01-08T22:50:53.970Z,92.61
2023-01-08T22:55:50.076Z,92.59
2023-01-08T23:00:42.276Z,92.18
2023-01-08T23:05:47.273Z,92.41
2023-01-08T23:10:38.673Z,92.05
2023-01-08T23:15:35.353Z,91.75
2023-01-08T23:20:33.169Z,92.00
2023-01-08T23:25:38.894Z,92.16
2023-01-08T23:30:33.332Z,92.03
2023-01-08T23:35:24.245Z,91.81
2023-01-08T23:40:22.958Z,92.08
2023-01-08T23:45:31.247Z,92.83
2023-01-08T23:50:27.088Z,92.43
2023-01-08T23:55:24.493Z,93.41
